sensor_id;sensor_type;location;lat;lon;timestamp;P1;durP1;ratioP1;P2;durP2;ratioP2
45252;SDS011;63171;50.520;30.486;2022-09-29T00:00:16;5.20;;;4.68;;
45252;SDS011;63171;50.520;30.486;2022-09-29T00:01:06;4.63;;;4.20;;
45252;SDS011;63171;50.520;30.486;2022-09-29T00:01:57;5.43;;;4.80;;
45252;SDS011;63171;50.520;30.486;2022-09-29T00:02:47;7.20;;;5.43;;
45252;SDS011;63171;50.520;30.486;2022-09-29T00:03:37;5.03;;;4.63;;
45252;SDS011;63171;50.520;30.486;2022-09-29T00:04:28;5.32;;;4.38;;
45252;SDS011;63171;50.520;30.486;2022-09-29T00:05:18;7.28;;;5.18;;
45252;SDS011;63171;50.520;30.486;2022-09-29T00:06:12;6.00;;;5.40;;
45252;SDS011;63171;50.520;30.486;2022-09-29T00:07:04;6.55;;;4.78;;
45252;SDS011;63171;50.520;30.486;2022-09-29T00:07:56;7.18;;;5.45;;
45252;SDS011;63171;50.520;30.486;2022-09-29T00:08:46;4.75;;;4.35;;
45252;SDS011;63171;50.520;30.486;2022-09-29T00:09:37;6.95;;;5.22;;
45252;SDS011;63171;50.520;30.486;2022-09-29T00:10:27;5.00;;;4.55;;
45252;SDS011;63171;50.520;30.486;2022-09-29T00:11:18;6.40;;;4.78;;
45252;SDS011;63171;50.520;30.486;2022-09-29T00:12:08;7.22;;;4.25;;
45252;SDS011;63171;50.520;30.486;2022-09-29T00:12:59;5.55;;;5.05;;
45252;SDS011;63171;50.520;30.486;2022-09-29T00:13:49;6.75;;;4.28;;
45252;SDS011;63171;50.520;30.486;2022-09-29T00:14:39;4.68;;;4.28;;
45252;SDS011;63171;50.520;30.486;2022-09-29T00:15:29;4.55;;;4.15;;
45252;SDS011;63171;50.520;30.486;2022-09-29T00:16:20;5.20;;;4.72;;
45252;SDS011;63171;50.520;30.486;2022-09-29T00:17:10;4.40;;;3.97;;
45252;SDS011;63171;50.520;30.486;2022-09-29T00:18:02;6.43;;;4.45;;
45252;SDS011;63171;50.520;30.486;2022-09-29T00:18:52;4.75;;;4.35;;
45252;SDS011;63171;50.520;30.486;2022-09-29T00:19:43;5.72;;;5.22;;
45252;SDS011;63171;50.520;30.486;2022-09-29T00:20:33;5.30;;;4.80;;
45252;SDS011;63171;50.520;30.486;2022-09-29T00:21:24;5.20;;;4.70;;
45252;SDS011;63171;50.520;30.486;2022-09-29T00:22:14;4.97;;;4.03;;
45252;SDS011;63171;50.520;30.486;2022-09-29T00:23:06;5.00;;;4.50;;
45252;SDS011;63171;50.520;30.486;2022-09-29T00:23:59;3.75;;;3.42;;
45252;SDS011;63171;50.520;30.486;2022-09-29T00:24:50;5.18;;;4.68;;
45252;SDS011;63171;50.520;30.486;2022-09-29T00:25:40;5.65;;;5.15;;
45252;SDS011;63171;50.520;30.486;2022-09-29T00:26:31;4.82;;;4.30;;
45252;SDS011;63171;50.520;30.486;2022-09-29T00:27:20;4.93;;;4.38;;
45252;SDS011;63171;50.520;30.486;2022-09-29T00:28:11;4.40;;;3.92;;
45252;SDS011;63171;50.520;30.486;2022-09-29T00:29:01;4.90;;;4.50;;
45252;SDS011;63171;50.520;30.486;2022-09-29T00:29:52;4.63;;;4.18;;
45252;SDS011;63171;50.520;30.486;2022-09-29T00:30:42;5.13;;;4.63;;
45252;SDS011;63171;50.520;30.486;2022-09-29T00:31:33;4.25;;;3.85;;
45252;SDS011;63171;50.520;30.486;2022-09-29T00:32:22;8.13;;;4.25;;
45252;SDS011;63171;50.520;30.486;2022-09-29T00:33:13;4.38;;;3.97;;
45252;SDS011;63171;50.520;30.486;2022-09-29T00:34:03;4.63;;;3.92;;
45252;SDS011;63171;50.520;30.486;2022-09-29T00:34:54;4.22;;;3.88;;
45252;SDS011;63171;50.520;30.486;2022-09-29T00:35:44;4.82;;;4.28;;
45252;SDS011;63171;50.520;30.486;2022-09-29T00:36:34;5.47;;;4.45;;
45252;SDS011;63171;50.520;30.486;2022-09-29T00:37:24;5.05;;;4.55;;
45252;SDS011;63171;50.520;30.486;2022-09-29T00:38:16;4.15;;;3.75;;
45252;SDS011;63171;50.520;30.486;2022-09-29T00:39:06;5.47;;;4.45;;
45252;SDS011;63171;50.520;30.486;2022-09-29T00:39:57;5.28;;;4.50;;
45252;SDS011;63171;50.520;30.486;2022-09-29T00:40:46;5.30;;;4.70;;
45252;SDS011;63171;50.520;30.486;2022-09-29T00:41:37;7.40;;;5.22;;
45252;SDS011;63171;50.520;30.486;2022-09-29T00:42:28;4.60;;;4.20;;
45252;SDS011;63171;50.520;30.486;2022-09-29T00:43:21;4.90;;;4.25;;
45252;SDS011;63171;50.520;30.486;2022-09-29T00:45:40;4.60;;;4.07;;
45252;SDS011;63171;50.520;30.486;2022-09-29T00:46:32;7.40;;;4.75;;
45252;SDS011;63171;50.520;30.486;2022-09-29T00:47:29;5.38;;;4.50;;
45252;SDS011;63171;50.520;30.486;2022-09-29T00:48:23;5.00;;;4.50;;
45252;SDS011;63171;50.520;30.486;2022-09-29T00:49:22;8.70;;;4.40;;
45252;SDS011;63171;50.520;30.486;2022-09-29T00:50:16;5.95;;;4.38;;
45252;SDS011;63171;50.520;30.486;2022-09-29T00:51:09;7.30;;;4.68;;
45252;SDS011;63171;50.520;30.486;2022-09-29T00:52:00;5.32;;;4.68;;
45252;SDS011;63171;50.520;30.486;2022-09-29T00:52:55;4.93;;;4.43;;
45252;SDS011;63171;50.520;30.486;2022-09-29T00:53:51;4.70;;;4.28;;
45252;SDS011;63171;50.520;30.486;2022-09-29T00:54:43;4.95;;;3.92;;
45252;SDS011;63171;50.520;30.486;2022-09-29T00:55:37;4.88;;;4.00;;
45252;SDS011;63171;50.520;30.486;2022-09-29T00:56:32;5.30;;;4.80;;
45252;SDS011;63171;50.520;30.486;2022-09-29T00:57:26;4.75;;;4.18;;
45252;SDS011;63171;50.520;30.486;2022-09-29T00:58:21;5.25;;;4.80;;
45252;SDS011;63171;50.520;30.486;2022-09-29T00:59:19;6.47;;;4.22;;
45252;SDS011;63171;50.520;30.486;2022-09-29T01:00:14;6.28;;;4.55;;
45252;SDS011;63171;50.520;30.486;2022-09-29T01:01:05;5.88;;;4.82;;
45252;SDS011;63171;50.520;30.486;2022-09-29T01:01:56;5.05;;;4.65;;
45252;SDS011;63171;50.520;30.486;2022-09-29T01:02:49;6.93;;;4.38;;
45252;SDS011;63171;50.520;30.486;2022-09-29T01:03:44;6.80;;;5.20;;
45252;SDS011;63171;50.520;30.486;2022-09-29T01:04:36;4.93;;;4.43;;
45252;SDS011;63171;50.520;30.486;2022-09-29T01:05:27;7.00;;;5.45;;
45252;SDS011;63171;50.520;30.486;2022-09-29T01:06:22;6.80;;;5.10;;
45252;SDS011;63171;50.520;30.486;2022-09-29T01:07:16;6.45;;;4.80;;
45252;SDS011;63171;50.520;30.486;2022-09-29T01:08:10;4.90;;;4.45;;
45252;SDS011;63171;50.520;30.486;2022-09-29T01:09:05;5.55;;;5.05;;
45252;SDS011;63171;50.520;30.486;2022-09-29T01:09:57;5.97;;;4.10;;
45252;SDS011;63171;50.520;30.486;2022-09-29T01:11:39;4.90;;;4.40;;
45252;SDS011;63171;50.520;30.486;2022-09-29T01:12:31;7.28;;;4.78;;
45252;SDS011;63171;50.520;30.486;2022-09-29T01:13:22;4.63;;;4.22;;
45252;SDS011;63171;50.520;30.486;2022-09-29T01:14:12;4.15;;;3.70;;
45252;SDS011;63171;50.520;30.486;2022-09-29T01:15:04;4.95;;;4.45;;
45252;SDS011;63171;50.520;30.486;2022-09-29T01:15:55;4.43;;;4.03;;
45252;SDS011;63171;50.520;30.486;2022-09-29T01:16:46;5.13;;;4.40;;
45252;SDS011;63171;50.520;30.486;2022-09-29T01:17:36;5.85;;;5.00;;
45252;SDS011;63171;50.520;30.486;2022-09-29T01:18:26;8.13;;;4.43;;
45252;SDS011;63171;50.520;30.486;2022-09-29T01:19:18;3.67;;;3.38;;
45252;SDS011;63171;50.520;30.486;2022-09-29T01:20:17;5.30;;;4.10;;
45252;SDS011;63171;50.520;30.486;2022-09-29T01:21:11;4.75;;;4.35;;
45252;SDS011;63171;50.520;30.486;2022-09-29T01:22:09;6.80;;;3.92;;
45252;SDS011;63171;50.520;30.486;2022-09-29T01:23:27;8.00;;;3.97;;
45252;SDS011;63171;50.520;30.486;2022-09-29T01:24:58;3.80;;;3.40;;
45252;SDS011;63171;50.520;30.486;2022-09-29T01:26:17;3.53;;;3.22;;
45252;SDS011;63171;50.520;30.486;2022-09-29T01:27:50;4.75;;;3.90;;
45252;SDS011;63171;50.520;30.486;2022-09-29T01:29:07;4.50;;;3.55;;
45252;SDS011;63171;50.520;30.486;2022-09-29T01:30:14;3.40;;;3.10;;
45252;SDS011;63171;50.520;30.486;2022-09-29T01:31:13;3.67;;;3.38;;
45252;SDS011;63171;50.520;30.486;2022-09-29T01:32:13;4.40;;;3.55;;
45252;SDS011;63171;50.520;30.486;2022-09-29T01:33:13;4.47;;;4.07;;
45252;SDS011;63171;50.520;30.486;2022-09-29T01:34:16;9.32;;;4.35;;
45252;SDS011;63171;50.520;30.486;2022-09-29T01:35:15;3.65;;;3.33;;
45252;SDS011;63171;50.520;30.486;2022-09-29T01:36:13;4.50;;;4.10;;
45252;SDS011;63171;50.520;30.486;2022-09-29T01:37:13;4.00;;;3.70;;
45252;SDS011;63171;50.520;30.486;2022-09-29T01:38:13;4.40;;;3.58;;
45252;SDS011;63171;50.520;30.486;2022-09-29T01:39:16;4.13;;;3.72;;
45252;SDS011;63171;50.520;30.486;2022-09-29T01:40:15;4.78;;;4.07;;
45252;SDS011;63171;50.520;30.486;2022-09-29T01:41:09;3.80;;;3.50;;
45252;SDS011;63171;50.520;30.486;2022-09-29T01:42:02;3.70;;;3.40;;
45252;SDS011;63171;50.520;30.486;2022-09-29T01:42:57;3.50;;;3.15;;
45252;SDS011;63171;50.520;30.486;2022-09-29T01:43:54;3.80;;;3.50;;
45252;SDS011;63171;50.520;30.486;2022-09-29T01:44:48;4.00;;;3.70;;
45252;SDS011;63171;50.520;30.486;2022-09-29T01:45:46;3.78;;;3.38;;
45252;SDS011;63171;50.520;30.486;2022-09-29T01:46:42;3.80;;;3.50;;
45252;SDS011;63171;50.520;30.486;2022-09-29T01:47:36;3.10;;;2.80;;
45252;SDS011;63171;50.520;30.486;2022-09-29T01:48:31;3.78;;;3.47;;
45252;SDS011;63171;50.520;30.486;2022-09-29T01:49:23;3.58;;;3.17;;
45252;SDS011;63171;50.520;30.486;2022-09-29T01:50:19;4.55;;;3.83;;
45252;SDS011;63171;50.520;30.486;2022-09-29T01:51:13;4.28;;;3.35;;
45252;SDS011;63171;50.520;30.486;2022-09-29T01:52:07;3.35;;;3.05;;
45252;SDS011;63171;50.520;30.486;2022-09-29T01:53:00;5.30;;;3.88;;
45252;SDS011;63171;50.520;30.486;2022-09-29T01:53:57;6.30;;;3.90;;
45252;SDS011;63171;50.520;30.486;2022-09-29T01:54:53;4.10;;;3.60;;
45252;SDS011;63171;50.520;30.486;2022-09-29T01:55:49;4.80;;;3.17;;
45252;SDS011;63171;50.520;30.486;2022-09-29T01:56:42;4.30;;;3.40;;
45252;SDS011;63171;50.520;30.486;2022-09-29T01:57:44;5.00;;;3.50;;
45252;SDS011;63171;50.520;30.486;2022-09-29T01:58:41;4.18;;;3.42;;
45252;SDS011;63171;50.520;30.486;2022-09-29T01:59:40;3.88;;;3.55;;
45252;SDS011;63171;50.520;30.486;2022-09-29T02:00:34;4.82;;;4.05;;
45252;SDS011;63171;50.520;30.486;2022-09-29T02:01:30;2.80;;;2.60;;
45252;SDS011;63171;50.520;30.486;2022-09-29T02:02:26;3.47;;;3.15;;
45252;SDS011;63171;50.520;30.486;2022-09-29T02:03:20;3.58;;;3.28;;
45252;SDS011;63171;50.520;30.486;2022-09-29T02:04:15;4.18;;;3.85;;
45252;SDS011;63171;50.520;30.486;2022-09-29T02:05:09;4.03;;;3.72;;
45252;SDS011;63171;50.520;30.486;2022-09-29T02:06:06;3.83;;;3.53;;
45252;SDS011;63171;50.520;30.486;2022-09-29T02:07:02;3.40;;;3.10;;
45252;SDS011;63171;50.520;30.486;2022-09-29T02:07:57;5.13;;;4.47;;
45252;SDS011;63171;50.520;30.486;2022-09-29T02:08:52;3.80;;;3.50;;
45252;SDS011;63171;50.520;30.486;2022-09-29T02:09:44;4.18;;;3.85;;
45252;SDS011;63171;50.520;30.486;2022-09-29T02:10:39;5.30;;;4.85;;
45252;SDS011;63171;50.520;30.486;2022-09-29T02:11:34;4.68;;;4.22;;
45252;SDS011;63171;50.520;30.486;2022-09-29T02:12:28;4.72;;;4.32;;
45252;SDS011;63171;50.520;30.486;2022-09-29T02:13:20;5.25;;;4.75;;
45252;SDS011;63171;50.520;30.486;2022-09-29T02:14:14;4.60;;;4.20;;
45252;SDS011;63171;50.520;30.486;2022-09-29T02:15:08;5.53;;;4.75;;
45252;SDS011;63171;50.520;30.486;2022-09-29T02:16:07;4.25;;;3.85;;
45252;SDS011;63171;50.520;30.486;2022-09-29T02:17:03;6.70;;;4.30;;
45252;SDS011;63171;50.520;30.486;2022-09-29T02:18:02;5.00;;;4.60;;
45252;SDS011;63171;50.520;30.486;2022-09-29T02:19:00;3.92;;;3.63;;
45252;SDS011;63171;50.520;30.486;2022-09-29T02:19:54;6.05;;;4.60;;
45252;SDS011;63171;50.520;30.486;2022-09-29T02:20:45;4.32;;;3.65;;
45252;SDS011;63171;50.520;30.486;2022-09-29T02:21:36;3.90;;;3.50;;
45252;SDS011;63171;50.520;30.486;2022-09-29T02:22:25;4.28;;;3.55;;
45252;SDS011;63171;50.520;30.486;2022-09-29T02:23:16;4.13;;;3.53;;
45252;SDS011;63171;50.520;30.486;2022-09-29T02:24:06;4.20;;;3.80;;
45252;SDS011;63171;50.520;30.486;2022-09-29T02:24:58;4.15;;;3.85;;
45252;SDS011;63171;50.520;30.486;2022-09-29T02:25:49;4.38;;;3.75;;
45252;SDS011;63171;50.520;30.486;2022-09-29T02:26:41;4.70;;;4.25;;
45252;SDS011;63171;50.520;30.486;2022-09-29T02:27:33;4.15;;;3.72;;
45252;SDS011;63171;50.520;30.486;2022-09-29T02:28:25;3.08;;;2.83;;
45252;SDS011;63171;50.520;30.486;2022-09-29T02:29:16;4.85;;;3.75;;
45252;SDS011;63171;50.520;30.486;2022-09-29T02:30:08;7.20;;;3.70;;
45252;SDS011;63171;50.520;30.486;2022-09-29T02:30:59;4.65;;;4.20;;
45252;SDS011;63171;50.520;30.486;2022-09-29T02:31:50;6.80;;;4.70;;
45252;SDS011;63171;50.520;30.486;2022-09-29T02:32:40;6.30;;;3.85;;
45252;SDS011;63171;50.520;30.486;2022-09-29T02:33:32;4.22;;;3.83;;
45252;SDS011;63171;50.520;30.486;2022-09-29T02:34:21;4.53;;;4.03;;
45252;SDS011;63171;50.520;30.486;2022-09-29T02:35:13;5.43;;;4.45;;
45252;SDS011;63171;50.520;30.486;2022-09-29T02:36:06;3.50;;;3.17;;
45252;SDS011;63171;50.520;30.486;2022-09-29T02:37:11;3.17;;;2.90;;
45252;SDS011;63171;50.520;30.486;2022-09-29T02:38:11;4.38;;;3.55;;
45252;SDS011;63171;50.520;30.486;2022-09-29T02:39:11;3.78;;;3.10;;
45252;SDS011;63171;50.520;30.486;2022-09-29T02:40:21;9.75;;;3.90;;
45252;SDS011;63171;50.520;30.486;2022-09-29T02:41:26;5.70;;;3.13;;
45252;SDS011;63171;50.520;30.486;2022-09-29T02:42:24;4.10;;;3.53;;
45252;SDS011;63171;50.520;30.486;2022-09-29T02:43:23;4.25;;;3.38;;
45252;SDS011;63171;50.520;30.486;2022-09-29T02:44:47;3.42;;;2.58;;
45252;SDS011;63171;50.520;30.486;2022-09-29T02:45:51;4.45;;;4.05;;
45252;SDS011;63171;50.520;30.486;2022-09-29T02:46:54;3.17;;;2.88;;
45252;SDS011;63171;50.520;30.486;2022-09-29T02:48:05;5.80;;;3.13;;
45252;SDS011;63171;50.520;30.486;2022-09-29T02:49:07;4.97;;;2.83;;
45252;SDS011;63171;50.520;30.486;2022-09-29T02:50:18;4.05;;;3.60;;
45252;SDS011;63171;50.520;30.486;2022-09-29T02:51:33;3.65;;;3.35;;
45252;SDS011;63171;50.520;30.486;2022-09-29T02:52:30;3.53;;;3.22;;
45252;SDS011;63171;50.520;30.486;2022-09-29T02:53:33;3.50;;;3.20;;
45252;SDS011;63171;50.520;30.486;2022-09-29T02:54:38;3.58;;;3.15;;
45252;SDS011;63171;50.520;30.486;2022-09-29T02:55:39;5.70;;;4.13;;
45252;SDS011;63171;50.520;30.486;2022-09-29T02:56:35;3.90;;;3.60;;
45252;SDS011;63171;50.520;30.486;2022-09-29T02:57:30;5.28;;;3.80;;
45252;SDS011;63171;50.520;30.486;2022-09-29T02:58:29;4.45;;;4.05;;
45252;SDS011;63171;50.520;30.486;2022-09-29T02:59:26;5.70;;;3.78;;
45252;SDS011;63171;50.520;30.486;2022-09-29T03:00:25;13.15;;;4.07;;
45252;SDS011;63171;50.520;30.486;2022-09-29T03:01:17;4.25;;;3.22;;
45252;SDS011;63171;50.520;30.486;2022-09-29T03:02:07;4.50;;;3.60;;
45252;SDS011;63171;50.520;30.486;2022-09-29T03:02:57;5.10;;;3.78;;
45252;SDS011;63171;50.520;30.486;2022-09-29T03:03:48;6.63;;;3.50;;
45252;SDS011;63171;50.520;30.486;2022-09-29T03:04:39;4.15;;;3.28;;
45252;SDS011;63171;50.520;30.486;2022-09-29T03:05:30;5.78;;;3.53;;
45252;SDS011;63171;50.520;30.486;2022-09-29T03:06:20;3.70;;;3.42;;
45252;SDS011;63171;50.520;30.486;2022-09-29T03:07:11;5.55;;;4.00;;
45252;SDS011;63171;50.520;30.486;2022-09-29T03:08:01;5.18;;;4.68;;
45252;SDS011;63171;50.520;30.486;2022-09-29T03:08:52;4.25;;;3.85;;
45252;SDS011;63171;50.520;30.486;2022-09-29T03:09:41;9.63;;;4.15;;
45252;SDS011;63171;50.520;30.486;2022-09-29T03:10:32;4.55;;;3.75;;
45252;SDS011;63171;50.520;30.486;2022-09-29T03:11:22;4.15;;;3.72;;
45252;SDS011;63171;50.520;30.486;2022-09-29T03:12:13;6.63;;;4.25;;
45252;SDS011;63171;50.520;30.486;2022-09-29T03:13:03;5.00;;;4.47;;
45252;SDS011;63171;50.520;30.486;2022-09-29T03:13:54;4.90;;;4.47;;
45252;SDS011;63171;50.520;30.486;2022-09-29T03:14:43;4.65;;;4.25;;
45252;SDS011;63171;50.520;30.486;2022-09-29T03:15:34;4.57;;;4.18;;
45252;SDS011;63171;50.520;30.486;2022-09-29T03:16:24;5.97;;;4.32;;
45252;SDS011;63171;50.520;30.486;2022-09-29T03:17:15;5.63;;;5.10;;
45252;SDS011;63171;50.520;30.486;2022-09-29T03:18:05;6.68;;;4.68;;
45252;SDS011;63171;50.520;30.486;2022-09-29T03:18:56;5.20;;;4.78;;
45252;SDS011;63171;50.520;30.486;2022-09-29T03:19:48;6.82;;;5.00;;
45252;SDS011;63171;50.520;30.486;2022-09-29T03:20:38;5.50;;;4.95;;
45252;SDS011;63171;50.520;30.486;2022-09-29T03:21:28;6.05;;;4.82;;
45252;SDS011;63171;50.520;30.486;2022-09-29T03:22:19;4.07;;;3.72;;
45252;SDS011;63171;50.520;30.486;2022-09-29T03:23:09;4.82;;;4.43;;
45252;SDS011;63171;50.520;30.486;2022-09-29T03:24:09;3.90;;;3.60;;
45252;SDS011;63171;50.520;30.486;2022-09-29T03:24:59;5.68;;;5.15;;
45252;SDS011;63171;50.520;30.486;2022-09-29T03:25:50;6.32;;;4.97;;
45252;SDS011;63171;50.520;30.486;2022-09-29T03:26:40;5.38;;;4.97;;
45252;SDS011;63171;50.520;30.486;2022-09-29T03:27:31;6.68;;;4.47;;
45252;SDS011;63171;50.520;30.486;2022-09-29T03:28:21;6.25;;;4.72;;
45252;SDS011;63171;50.520;30.486;2022-09-29T03:29:11;4.82;;;4.43;;
45252;SDS011;63171;50.520;30.486;2022-09-29T03:30:02;5.68;;;4.60;;
45252;SDS011;63171;50.520;30.486;2022-09-29T03:30:52;4.35;;;4.05;;
45252;SDS011;63171;50.520;30.486;2022-09-29T03:31:43;4.38;;;3.97;;
45252;SDS011;63171;50.520;30.486;2022-09-29T03:32:33;4.53;;;4.13;;
45252;SDS011;63171;50.520;30.486;2022-09-29T03:33:24;4.20;;;3.85;;
45252;SDS011;63171;50.520;30.486;2022-09-29T03:34:13;5.43;;;4.28;;
45252;SDS011;63171;50.520;30.486;2022-09-29T03:35:07;7.93;;;5.13;;
45252;SDS011;63171;50.520;30.486;2022-09-29T03:35:57;8.70;;;4.75;;
45252;SDS011;63171;50.520;30.486;2022-09-29T03:36:48;4.82;;;4.43;;
45252;SDS011;63171;50.520;30.486;2022-09-29T03:37:38;5.43;;;4.60;;
45252;SDS011;63171;50.520;30.486;2022-09-29T03:38:28;5.88;;;4.82;;
45252;SDS011;63171;50.520;30.486;2022-09-29T03:39:19;5.10;;;4.00;;
45252;SDS011;63171;50.520;30.486;2022-09-29T03:40:09;8.68;;;4.70;;
45252;SDS011;63171;50.520;30.486;2022-09-29T03:41:00;5.65;;;4.85;;
45252;SDS011;63171;50.520;30.486;2022-09-29T03:41:50;8.98;;;5.07;;
45252;SDS011;63171;50.520;30.486;2022-09-29T03:42:41;5.25;;;4.75;;
45252;SDS011;63171;50.520;30.486;2022-09-29T03:43:34;13.55;;;5.95;;
45252;SDS011;63171;50.520;30.486;2022-09-29T03:44:25;5.60;;;5.10;;
45252;SDS011;63171;50.520;30.486;2022-09-29T03:45:14;5.97;;;5.38;;
45252;SDS011;63171;50.520;30.486;2022-09-29T03:46:05;6.10;;;5.50;;
45252;SDS011;63171;50.520;30.486;2022-09-29T03:46:55;6.13;;;5.30;;
45252;SDS011;63171;50.520;30.486;2022-09-29T03:47:46;9.27;;;4.10;;
45252;SDS011;63171;50.520;30.486;2022-09-29T03:48:36;4.78;;;4.28;;
45252;SDS011;63171;50.520;30.486;2022-09-29T03:49:27;5.97;;;4.63;;
45252;SDS011;63171;50.520;30.486;2022-09-29T03:50:19;5.72;;;5.20;;
45252;SDS011;63171;50.520;30.486;2022-09-29T03:51:10;4.80;;;4.40;;
45252;SDS011;63171;50.520;30.486;2022-09-29T03:52:00;7.25;;;3.53;;
45252;SDS011;63171;50.520;30.486;2022-09-29T03:52:51;4.97;;;4.47;;
45252;SDS011;63171;50.520;30.486;2022-09-29T03:53:40;5.25;;;4.75;;
45252;SDS011;63171;50.520;30.486;2022-09-29T03:54:31;4.55;;;4.15;;
45252;SDS011;63171;50.520;30.486;2022-09-29T03:55:20;6.97;;;4.57;;
45252;SDS011;63171;50.520;30.486;2022-09-29T03:56:11;4.47;;;4.07;;
45252;SDS011;63171;50.520;30.486;2022-09-29T03:57:01;5.25;;;4.85;;
45252;SDS011;63171;50.520;30.486;2022-09-29T03:57:52;5.40;;;4.90;;
45252;SDS011;63171;50.520;30.486;2022-09-29T03:58:42;6.32;;;5.03;;
45252;SDS011;63171;50.520;30.486;2022-09-29T03:59:33;12.75;;;5.80;;
45252;SDS011;63171;50.520;30.486;2022-09-29T04:00:23;6.80;;;5.53;;
45252;SDS011;63171;50.520;30.486;2022-09-29T04:01:14;6.13;;;5.25;;
45252;SDS011;63171;50.520;30.486;2022-09-29T04:02:04;6.78;;;5.15;;
45252;SDS011;63171;50.520;30.486;2022-09-29T04:02:55;8.30;;;5.70;;
45252;SDS011;63171;50.520;30.486;2022-09-29T04:03:44;6.85;;;5.93;;
45252;SDS011;63171;50.520;30.486;2022-09-29T04:04:35;6.07;;;5.43;;
45252;SDS011;63171;50.520;30.486;2022-09-29T04:05:27;5.60;;;5.07;;
45252;SDS011;63171;50.520;30.486;2022-09-29T04:06:18;5.88;;;5.28;;
45252;SDS011;63171;50.520;30.486;2022-09-29T04:07:08;5.75;;;5.18;;
45252;SDS011;63171;50.520;30.486;2022-09-29T04:07:59;6.60;;;5.47;;
45252;SDS011;63171;50.520;30.486;2022-09-29T04:08:48;9.43;;;6.10;;
45252;SDS011;63171;50.520;30.486;2022-09-29T04:09:39;7.70;;;5.43;;
45252;SDS011;63171;50.520;30.486;2022-09-29T04:10:29;5.85;;;5.35;;
45252;SDS011;63171;50.520;30.486;2022-09-29T04:11:20;7.10;;;6.13;;
45252;SDS011;63171;50.520;30.486;2022-09-29T04:12:10;9.32;;;5.80;;
45252;SDS011;63171;50.520;30.486;2022-09-29T04:13:00;7.78;;;5.55;;
45252;SDS011;63171;50.520;30.486;2022-09-29T04:13:50;7.32;;;6.25;;
45252;SDS011;63171;50.520;30.486;2022-09-29T04:14:41;10.13;;;6.32;;
45252;SDS011;63171;50.520;30.486;2022-09-29T04:15:31;6.72;;;5.65;;
45252;SDS011;63171;50.520;30.486;2022-09-29T04:16:22;11.98;;;6.68;;
45252;SDS011;63171;50.520;30.486;2022-09-29T04:17:12;8.65;;;6.10;;
45252;SDS011;63171;50.520;30.486;2022-09-29T04:18:03;8.13;;;6.13;;
45252;SDS011;63171;50.520;30.486;2022-09-29T04:18:54;6.25;;;5.75;;
45252;SDS011;63171;50.520;30.486;2022-09-29T04:19:44;8.05;;;6.80;;
45252;SDS011;63171;50.520;30.486;2022-09-29T04:20:36;9.13;;;5.63;;
45252;SDS011;63171;50.520;30.486;2022-09-29T04:21:27;12.13;;;6.68;;
45252;SDS011;63171;50.520;30.486;2022-09-29T04:22:16;6.65;;;5.10;;
45252;SDS011;63171;50.520;30.486;2022-09-29T04:23:07;7.57;;;6.88;;
45252;SDS011;63171;50.520;30.486;2022-09-29T04:23:57;6.88;;;6.15;;
45252;SDS011;63171;50.520;30.486;2022-09-29T04:24:48;6.40;;;5.65;;
45252;SDS011;63171;50.520;30.486;2022-09-29T04:25:37;7.78;;;6.15;;
45252;SDS011;63171;50.520;30.486;2022-09-29T04:26:28;7.43;;;5.60;;
45252;SDS011;63171;50.520;30.486;2022-09-29T04:27:17;7.35;;;5.55;;
45252;SDS011;63171;50.520;30.486;2022-09-29T04:28:08;7.85;;;6.15;;
45252;SDS011;63171;50.520;30.486;2022-09-29T04:28:58;6.90;;;6.20;;
45252;SDS011;63171;50.520;30.486;2022-09-29T04:29:49;5.80;;;5.30;;
45252;SDS011;63171;50.520;30.486;2022-09-29T04:30:39;7.03;;;5.55;;
45252;SDS011;63171;50.520;30.486;2022-09-29T04:31:30;8.00;;;5.93;;
45252;SDS011;63171;50.520;30.486;2022-09-29T04:32:20;8.68;;;5.97;;
45252;SDS011;63171;50.520;30.486;2022-09-29T04:33:11;7.07;;;5.18;;
45252;SDS011;63171;50.520;30.486;2022-09-29T04:34:01;6.25;;;5.65;;
45252;SDS011;63171;50.520;30.486;2022-09-29T04:34:52;6.10;;;5.47;;
45252;SDS011;63171;50.520;30.486;2022-09-29T04:35:43;7.47;;;5.82;;
45252;SDS011;63171;50.520;30.486;2022-09-29T04:36:34;7.60;;;6.57;;
45252;SDS011;63171;50.520;30.486;2022-09-29T04:37:24;5.97;;;5.38;;
45252;SDS011;63171;50.520;30.486;2022-09-29T04:38:15;6.47;;;5.88;;
45252;SDS011;63171;50.520;30.486;2022-09-29T04:39:05;7.57;;;6.35;;
45252;SDS011;63171;50.520;30.486;2022-09-29T04:39:55;12.35;;;7.22;;
45252;SDS011;63171;50.520;30.486;2022-09-29T04:40:45;8.00;;;5.20;;
45252;SDS011;63171;50.520;30.486;2022-09-29T04:41:35;6.55;;;5.90;;
45252;SDS011;63171;50.520;30.486;2022-09-29T04:42:27;7.18;;;5.55;;
45252;SDS011;63171;50.520;30.486;2022-09-29T04:43:17;6.78;;;6.15;;
45252;SDS011;63171;50.520;30.486;2022-09-29T04:44:08;7.75;;;5.68;;
45252;SDS011;63171;50.520;30.486;2022-09-29T04:44:58;6.28;;;5.72;;
45252;SDS011;63171;50.520;30.486;2022-09-29T04:45:49;6.45;;;5.85;;
45252;SDS011;63171;50.520;30.486;2022-09-29T04:46:38;8.32;;;7.38;;
45252;SDS011;63171;50.520;30.486;2022-09-29T04:47:29;8.55;;;5.97;;
45252;SDS011;63171;50.520;30.486;2022-09-29T04:48:19;8.95;;;6.00;;
45252;SDS011;63171;50.520;30.486;2022-09-29T04:49:10;7.55;;;6.45;;
45252;SDS011;63171;50.520;30.486;2022-09-29T04:50:00;7.47;;;6.10;;
45252;SDS011;63171;50.520;30.486;2022-09-29T04:50:52;7.30;;;5.75;;
45252;SDS011;63171;50.520;30.486;2022-09-29T04:51:43;9.70;;;6.00;;
45252;SDS011;63171;50.520;30.486;2022-09-29T04:52:33;6.45;;;5.85;;
45252;SDS011;63171;50.520;30.486;2022-09-29T04:54:14;8.82;;;5.03;;
45252;SDS011;63171;50.520;30.486;2022-09-29T04:55:04;6.18;;;5.53;;
45252;SDS011;63171;50.520;30.486;2022-09-29T04:56:03;7.13;;;5.43;;
45252;SDS011;63171;50.520;30.486;2022-09-29T04:56:53;8.05;;;5.35;;
45252;SDS011;63171;50.520;30.486;2022-09-29T04:57:44;6.30;;;5.70;;
45252;SDS011;63171;50.520;30.486;2022-09-29T04:58:35;6.05;;;5.20;;
45252;SDS011;63171;50.520;30.486;2022-09-29T04:59:26;7.88;;;5.90;;
45252;SDS011;63171;50.520;30.486;2022-09-29T05:00:16;6.38;;;5.75;;
45252;SDS011;63171;50.520;30.486;2022-09-29T05:01:09;8.35;;;6.97;;
45252;SDS011;63171;50.520;30.486;2022-09-29T05:02:01;6.80;;;6.07;;
45252;SDS011;63171;50.520;30.486;2022-09-29T05:02:52;7.28;;;6.57;;
45252;SDS011;63171;50.520;30.486;2022-09-29T05:03:42;9.68;;;7.35;;
45252;SDS011;63171;50.520;30.486;2022-09-29T05:04:33;6.18;;;5.57;;
45252;SDS011;63171;50.520;30.486;2022-09-29T05:05:23;8.77;;;6.30;;
45252;SDS011;63171;50.520;30.486;2022-09-29T05:06:15;7.78;;;5.60;;
45252;SDS011;63171;50.520;30.486;2022-09-29T05:07:05;6.05;;;5.18;;
45252;SDS011;63171;50.520;30.486;2022-09-29T05:07:56;6.13;;;5.22;;
45252;SDS011;63171;50.520;30.486;2022-09-29T05:08:47;5.53;;;5.03;;
45252;SDS011;63171;50.520;30.486;2022-09-29T05:09:38;5.68;;;5.18;;
45252;SDS011;63171;50.520;30.486;2022-09-29T05:10:28;6.82;;;5.50;;
45252;SDS011;63171;50.520;30.486;2022-09-29T05:11:18;6.72;;;5.03;;
45252;SDS011;63171;50.520;30.486;2022-09-29T05:12:08;8.77;;;6.90;;
45252;SDS011;63171;50.520;30.486;2022-09-29T05:12:59;7.13;;;6.45;;
45252;SDS011;63171;50.520;30.486;2022-09-29T05:13:49;8.10;;;5.97;;
45252;SDS011;63171;50.520;30.486;2022-09-29T05:14:40;8.85;;;5.90;;
45252;SDS011;63171;50.520;30.486;2022-09-29T05:15:30;8.10;;;6.35;;
45252;SDS011;63171;50.520;30.486;2022-09-29T05:16:25;6.43;;;5.82;;
45252;SDS011;63171;50.520;30.486;2022-09-29T05:17:16;6.53;;;5.93;;
45252;SDS011;63171;50.520;30.486;2022-09-29T05:18:07;8.77;;;6.50;;